Time;durP1;ratioP1;P1;durP2;ratioP2;P2;SDS_P1;SDS_P2;PMS_P1;PMS_P2;Temp;Humidity;BMP_temperature;BMP_pressure;BME280_temperature;BME280_humidity;BME280_pressure;Samples;Min_cycle;Max_cycle;Signal;HPM_P1;HPM_P2
2023/02/28 00:00:27;;;;;;;3.20;2.07;;;;;;;-2.99;100.00;96262.44;1022340;28;20140;-64
2023/02/28 00:00:58;;;;;;;5.47;2.63;;;;;;;-2.96;100.00;96276.72;1018503;29;20571;-65
2023/02/28 00:01:28;;;;;;;3.77;2.33;;;;;;;-2.96;100.00;96269.03;1018513;29;20070;-64
2023/02/28 00:01:59;;;;;;;6.33;2.43;;;;;;;-2.97;100.00;96267.44;1022052;28;20027;-64
2023/02/28 00:02:29;;;;;;;5.53;2.80;;;;;;;-2.97;100.00;96262.31;1022613;28;20019;-66
2023/02/28 00:02:59;;;;;;;6.20;2.90;;;;;;;-2.97;100.00;96270.00;1022061;28;20525;-64
2023/02/28 00:03:30;;;;;;;4.30;2.30;;;;;;;-2.99;100.00;96265.00;1030090;28;20026;-65
2023/02/28 00:04:00;;;;;;;3.80;2.37;;;;;;;-3.05;100.00;96262.31;1030344;28;20384;-64
2023/02/28 00:04:31;;;;;;;4.72;2.47;;;;;;;-2.99;100.00;96272.72;1022245;28;20035;-65
2023/02/28 00:05:03;;;;;;;5.47;2.50;;;;;;;-2.99;100.00;96261.66;1025647;28;20515;-64
2023/02/28 00:05:33;;;;;;;3.65;2.42;;;;;;;-2.99;100.00;96266.78;1026621;28;20039;-65
2023/02/28 00:06:04;;;;;;;3.10;2.07;;;;;;;-3.01;100.00;96263.59;1024769;28;20046;-64
2023/02/28 00:06:36;;;;;;;6.18;2.58;;;;;;;-3.05;100.00;96257.16;1029899;28;20051;-64
2023/02/28 00:07:06;;;;;;;4.50;2.40;;;;;;;-3.02;100.00;96269.69;1021737;28;20038;-64
2023/02/28 00:07:37;;;;;;;4.70;2.43;;;;;;;-3.01;100.00;96266.97;1022270;28;20035;-64
2023/02/28 00:08:08;;;;;;;3.97;2.47;;;;;;;-3.02;100.00;96261.97;1026456;28;20057;-64
2023/02/28 00:08:39;;;;;;;6.10;3.10;;;;;;;-3.03;100.00;96260.38;1026102;28;20037;-64
2023/02/28 00:09:09;;;;;;;4.13;2.57;;;;;;;-3.02;100.00;96261.97;1022270;28;20027;-64
2023/02/28 00:09:39;;;;;;;3.77;2.53;;;;;;;-3.04;100.00;96264.72;1025658;28;20081;-64
2023/02/28 00:10:12;;;;;;;5.27;2.83;;;;;;;-3.12;100.00;96255.28;1026007;28;20529;-65
2023/02/28 00:10:42;;;;;;;4.22;2.20;;;;;;;-3.13;100.00;96253.66;1023070;28;20394;-65
2023/02/28 00:11:13;;;;;;;3.43;2.93;;;;;;;-3.06;100.00;96261.50;1026064;28;20088;-64
2023/02/28 00:11:44;;;;;;;5.13;2.58;;;;;;;-3.06;100.00;96258.16;1025965;28;20059;-64
2023/02/28 00:12:14;;;;;;;4.73;2.47;;;;;;;-3.06;100.00;96258.16;1022757;28;20015;-65
2023/02/28 00:12:45;;;;;;;4.20;2.87;;;;;;;-3.09;100.00;96257.50;1026289;28;20027;-64
2023/02/28 00:13:16;;;;;;;6.53;2.50;;;;;;;-3.09;100.00;96262.63;1029985;28;20109;-65
2023/02/28 00:13:47;;;;;;;3.95;2.47;;;;;;;-3.09;100.00;96257.50;1026245;28;20504;-64
2023/02/28 00:14:17;;;;;;;3.67;2.60;;;;;;;-3.10;100.00;96261.03;1026099;28;20042;-65
2023/02/28 00:14:48;;;;;;;3.73;2.50;;;;;;;-3.10;100.00;96258.47;1022397;29;20020;-66
2023/02/28 00:15:18;;;;;;;6.43;2.90;;;;;;;-3.11;100.00;96259.44;1025874;28;20100;-65
2023/02/28 00:15:59;;;;;;;2.57;2.30;;;;;;;-3.10;100.00;96260.25;1022115;29;20019;-65
2023/02/28 00:16:29;;;;;;;6.35;2.38;;;;;;;-3.12;100.00;96262.97;1014743;29;20024;-64
2023/02/28 00:16:59;;;;;;;4.00;2.27;;;;;;;-3.13;100.00;96263.94;1015876;29;20036;-64
2023/02/28 00:17:30;;;;;;;5.77;3.00;;;;;;;-3.19;100.00;96251.75;1013228;29;20039;-64
2023/02/28 00:18:01;;;;;;;4.23;2.63;;;;;;;-3.15;100.00;96255.59;1018151;29;20426;-64
2023/02/28 00:18:32;;;;;;;3.92;2.10;;;;;;;-3.16;100.00;96259.13;1018267;29;20036;-64
2023/02/28 00:19:02;;;;;;;5.83;3.20;;;;;;;-3.17;100.00;96254.97;1018612;29;20338;-65
2023/02/28 00:19:33;;;;;;;5.73;2.40;;;;;;;-3.17;100.00;96267.00;1017586;29;20079;-65
2023/02/28 00:20:06;;;;;;;4.53;2.70;;;;;;;-3.19;100.00;96256.88;1022134;28;20023;-64
2023/02/28 00:20:36;;;;;;;6.43;2.97;;;;;;;-3.19;100.00;96262.00;1022181;28;20034;-65
2023/02/28 00:21:07;;;;;;;5.13;2.20;;;;;;;-3.19;100.00;96261.22;1022406;28;20050;-64
2023/02/28 00:21:40;;;;;;;4.73;2.20;;;;;;;-3.21;100.00;96258.03;1022391;28;20132;-64
2023/02/28 00:22:11;;;;;;;3.30;2.60;;;;;;;-3.21;100.00;96246.00;1019149;28;20031;-65
2023/02/28 00:22:43;;;;;;;4.43;2.60;;;;;;;-3.24;100.00;96246.31;1026137;28;20026;-65
2023/02/28 00:23:13;;;;;;;4.10;2.55;;;;;;;-3.24;100.00;96251.44;1023234;28;20179;-65
2023/02/28 00:23:44;;;;;;;7.70;2.90;;;;;;;-3.25;100.00;96257.56;1021857;28;20074;-65
2023/02/28 00:24:14;;;;;;;4.67;2.53;;;;;;;-3.23;100.00;96249.69;1022602;29;20019;-64
2023/02/28 00:24:45;;;;;;;5.43;2.77;;;;;;;-3.23;100.00;96259.94;1022111;28;20494;-65
2023/02/28 00:25:18;;;;;;;3.83;2.27;;;;;;;-3.30;100.00;96244.41;1026291;28;20104;-63
2023/02/28 00:25:48;;;;;;;4.35;2.88;;;;;;;-3.25;100.00;96257.56;1030350;28;20385;-64
2023/02/28 00:26:19;;;;;;;5.07;2.80;;;;;;;-3.23;100.00;96259.94;1029901;28;20545;-64
2023/02/28 00:26:49;;;;;;;2.93;2.30;;;;;;;-3.25;100.00;96254.16;1030090;28;20026;-64
2023/02/28 00:27:20;;;;;;;4.03;2.80;;;;;;;-3.25;100.00;96255.00;1022349;28;20023;-64
2023/02/28 00:27:50;;;;;;;5.07;2.40;;;;;;;-3.25;100.00;96255.00;1022042;29;20385;-64
2023/02/28 00:28:21;;;;;;;4.10;2.53;;;;;;;-3.26;100.00;96257.69;1018442;29;20126;-64
2023/02/28 00:28:52;;;;;;;3.37;2.20;;;;;;;-3.26;100.00;96255.13;1018079;29;20119;-65
2023/02/28 00:29:23;;;;;;;5.55;2.80;;;;;;;-3.26;100.00;96252.56;1021519;29;20054;-65
2023/02/28 00:29:54;;;;;;;5.90;2.63;;;;;;;-3.27;100.00;96254.34;1022424;28;20038;-65
2023/02/28 00:30:24;;;;;;;6.87;2.40;;;;;;;-3.29;100.00;96251.13;1026197;28;20052;-64
2023/02/28 00:30:55;;;;;;;3.03;2.10;;;;;;;-3.29;100.00;96261.38;1030115;28;20022;-64
2023/02/28 00:31:25;;;;;;;3.77;2.67;;;;;;;-3.28;100.00;96257.88;1030836;28;20233;-65
2023/02/28 00:31:55;;;;;;;2.60;2.40;;;;;;;-3.32;100.00;96256.56;1029864;28;20034;-65
2023/02/28 00:32:26;;;;;;;4.37;2.50;;;;;;;-3.33;100.00;96254.97;1026259;28;20065;-64
2023/02/28 00:32:56;;;;;;;4.97;3.10;;;;;;;-3.33;100.00;96254.97;1026117;28;20049;-64
2023/02/28 00:33:27;;;;;;;4.23;2.70;;;;;;;-3.34;100.00;96255.97;1022204;28;20026;-64
2023/02/28 00:33:58;;;;;;;5.53;2.70;;;;;;;-3.33;100.00;96254.97;1026210;28;20034;-64
2023/02/28 00:34:28;;;;;;;3.77;2.40;;;;;;;-3.36;100.00;96256.09;1026037;28;20381;-64
2023/02/28 00:34:59;;;;;;;4.80;2.63;;;;;;;-3.37;100.00;96254.50;1026167;28;20105;-64
2023/02/28 00:35:29;;;;;;;4.53;3.00;;;;;;;-3.37;100.00;96253.72;1030480;28;20018;-64
2023/02/28 00:36:04;;;;;;;5.20;2.80;;;;;;;-3.38;100.00;96255.47;1030056;28;20440;-64
2023/02/28 00:36:35;;;;;;;5.00;2.72;;;;;;;-3.38;100.00;96262.38;1026357;28;20587;-64
2023/02/28 00:37:06;;;;;;;2.50;2.17;;;;;;;-3.38;100.00;96252.91;1025889;28;20035;-64
2023/02/28 00:37:37;;;;;;;4.25;2.50;;;;;;;-3.38;100.00;96264.94;1025958;28;20031;-65
2023/02/28 00:38:07;;;;;;;3.40;2.43;;;;;;;-3.43;100.00;96250.03;1022766;28;20472;-64
2023/02/28 00:38:38;;;;;;;4.50;2.60;;;;;;;-3.40;100.00;96257.41;1026045;28;20033;-64
2023/02/28 00:39:09;;;;;;;5.20;2.60;;;;;;;-3.40;100.00;96254.03;1025995;28;20027;-64
2023/02/28 00:39:39;;;;;;;7.23;2.50;;;;;;;-3.42;100.00;96253.38;1017875;29;20095;-65
2023/02/28 00:40:11;;;;;;;4.10;2.47;;;;;;;-3.43;100.00;96250.03;1022183;28;20027;-64
2023/02/28 00:40:42;;;;;;;3.83;2.38;;;;;;;-3.43;100.00;96249.22;1026338;28;20023;-64
2023/02/28 00:41:12;;;;;;;3.07;2.77;;;;;;;-3.44;100.00;96258.69;1022418;28;20070;-64
2023/02/28 00:41:43;;;;;;;4.13;2.80;;;;;;;-3.42;100.00;96250.81;1026081;28;20105;-64
2023/02/28 00:42:13;;;;;;;4.20;2.43;;;;;;;-3.49;100.00;96247.31;1026434;28;20037;-64
2023/02/28 00:42:44;;;;;;;4.67;2.97;;;;;;;-3.43;100.00;96249.22;1025711;28;20532;-64
2023/02/28 00:43:14;;;;;;;5.00;2.60;;;;;;;-3.44;100.00;96258.69;1025932;28;20038;-64
2023/02/28 00:43:45;;;;;;;5.20;2.77;;;;;;;-3.45;100.00;96248.59;1026404;28;20575;-64
2023/02/28 00:44:15;;;;;;;4.73;2.23;;;;;;;-3.47;100.00;96255.66;1026035;28;20022;-64
2023/02/28 00:44:45;;;;;;;3.97;2.60;;;;;;;-3.48;100.00;96254.06;1026221;28;20023;-64
2023/02/28 00:45:16;;;;;;;3.73;2.43;;;;;;;-3.50;100.00;96258.53;1030123;28;20476;-64
2023/02/28 00:45:46;;;;;;;7.03;3.20;;;;;;;-3.52;100.00;96256.16;1029912;28;20022;-65
2023/02/28 00:46:17;;;;;;;4.50;2.73;;;;;;;-3.52;100.00;96255.31;1026266;28;20034;-64
2023/02/28 00:46:47;;;;;;;5.70;3.17;;;;;;;-3.53;100.00;96259.66;1025779;28;20514;-65
2023/02/28 00:47:18;;;;;;;4.63;2.80;;;;;;;-3.54;100.00;96247.81;1025987;28;20030;-64
2023/02/28 00:47:49;;;;;;;3.60;2.90;;;;;;;-3.56;100.00;96255.66;1026308;28;20061;-64
2023/02/28 00:48:20;;;;;;;3.90;2.75;;;;;;;-3.56;100.00;96255.66;1025885;28;20035;-64
2023/02/28 00:48:50;;;;;;;5.70;2.87;;;;;;;-3.56;100.00;96255.66;1026204;28;20493;-64
2023/02/28 00:49:21;;;;;;;4.47;2.50;;;;;;;-3.58;100.00;96254.22;1025672;28;20541;-64
2023/02/28 00:49:51;;;;;;;3.70;2.57;;;;;;;-3.60;100.00;96249.25;1029890;28;20375;-64
2023/02/28 00:50:21;;;;;;;3.63;2.67;;;;;;;-3.62;100.00;96255.47;1026253;28;20052;-64
2023/02/28 00:50:52;;;;;;;6.33;2.90;;;;;;;-3.65;100.00;96246.38;1021972;29;20919;-64
2023/02/28 00:51:23;;;;;;;6.23;3.00;;;;;;;-3.61;100.00;96255.34;1017949;29;20159;-64
2023/02/28 00:51:54;;;;;;;8.90;2.70;;;;;;;-3.63;100.00;96251.31;1014696;29;20039;-65
2023/02/28 00:52:24;;;;;;;3.65;2.55;;;;;;;-3.64;100.00;96253.09;1017855;29;20015;-65
2023/02/28 00:52:55;;;;;;;5.27;3.53;;;;;;;-3.65;100.00;96259.19;1022387;28;20023;-64
2023/02/28 00:53:25;;;;;;;3.87;2.50;;;;;;;-3.65;100.00;96253.28;1021817;28;20019;-65
2023/02/28 00:53:56;;;;;;;3.93;2.60;;;;;;;-3.63;100.00;96254.69;1022050;29;20019;-64
2023/02/28 00:54:26;;;;;;;3.87;2.30;;;;;;;-3.65;100.00;96254.06;1022380;28;20023;-65
2023/02/28 00:54:57;;;;;;;5.70;3.23;;;;;;;-3.64;100.00;96253.09;1017727;29;20030;-63
2023/02/28 00:55:27;;;;;;;5.70;3.00;;;;;;;-3.63;100.00;96252.13;1018212;29;20062;-64
2023/02/28 00:55:58;;;;;;;4.53;2.33;;;;;;;-3.69;100.00;96249.41;1018264;29;20060;-63
2023/02/28 00:56:28;;;;;;;5.77;2.87;;;;;;;-3.64;100.00;96247.16;1019498;28;20102;-65
2023/02/28 00:56:59;;;;;;;5.23;2.97;;;;;;;-3.67;100.00;96242.38;1030097;28;20409;-65
2023/02/28 00:57:30;;;;;;;6.37;3.20;;;;;;;-3.64;100.00;96247.16;1030100;28;20018;-65
2023/02/28 00:58:00;;;;;;;4.43;2.43;;;;;;;-3.62;100.00;96256.31;1029807;28;20124;-64
2023/02/28 00:58:31;;;;;;;7.13;2.93;;;;;;;-3.65;100.00;96251.50;1022764;28;20039;-64
2023/02/28 00:59:01;;;;;;;5.70;2.83;;;;;;;-3.66;100.00;96252.44;1018903;29;20023;-65
2023/02/28 00:59:32;;;;;;;4.27;2.90;;;;;;;-3.68;100.00;96248.47;1022284;29;20078;-65
2023/02/28 01:00:03;;;;;;;5.60;2.77;;;;;;;-3.67;100.00;96248.28;1026806;28;20058;-64
2023/02/28 01:00:33;;;;;;;4.90;2.50;;;;;;;-3.67;100.00;96250.84;1026944;28;20027;-66
2023/02/28 01:01:04;;;;;;;4.87;2.90;;;;;;;-3.69;100.00;96245.09;1026654;28;20023;-66
2023/02/28 01:01:35;;;;;;;4.60;3.00;;;;;;;-3.68;100.00;96240.78;1026536;28;20034;-64
2023/02/28 01:02:05;;;;;;;4.37;2.67;;;;;;;-3.67;100.00;96250.84;1022261;28;20086;-64
2023/02/28 01:02:35;;;;;;;4.20;2.53;;;;;;;-3.68;100.00;96244.13;1026531;28;20425;-65
2023/02/28 01:03:06;;;;;;;5.00;2.70;;;;;;;-3.66;100.00;96249.09;1022023;28;20073;-64
2023/02/28 01:03:36;;;;;;;4.43;2.47;;;;;;;-3.68;100.00;96245.91;1021946;28;20610;-64
2023/02/28 01:04:07;;;;;;;4.57;2.57;;;;;;;-3.67;100.00;96253.41;1026289;28;20019;-64
2023/02/28 01:04:37;;;;;;;3.67;2.37;;;;;;;-3.68;100.00;96245.91;1026068;28;20023;-64
2023/02/28 01:05:08;;;;;;;4.27;2.60;;;;;;;-3.71;100.00;96248.78;1026157;28;20409;-64
2023/02/28 01:05:38;;;;;;;4.23;2.70;;;;;;;-3.70;100.00;96243.47;1026209;28;20015;-64
2023/02/28 01:06:09;;;;;;;3.27;2.57;;;;;;;-3.70;100.00;96243.47;1026130;28;20407;-64
2023/02/28 01:06:39;;;;;;;6.07;3.00;;;;;;;-3.68;100.00;96249.25;1022397;28;20390;-64
2023/02/28 01:07:10;;;;;;;6.03;3.00;;;;;;;-3.69;100.00;96247.66;1018216;28;20153;-65
2023/02/28 01:07:40;;;;;;;4.20;2.83;;;;;;;-3.69;100.00;96247.66;1026134;28;20114;-65
2023/02/28 01:08:11;;;;;;;3.90;2.90;;;;;;;-3.77;100.00;96234.84;1022976;28;20030;-64
2023/02/28 01:08:41;;;;;;;3.97;2.77;;;;;;;-3.73;100.00;96243.78;1022494;28;20555;-65
2023/02/28 01:09:12;;;;;;;3.33;2.40;;;;;;;-3.74;100.00;96252.47;1018477;29;20072;-64
2023/02/28 01:09:42;;;;;;;3.20;2.33;;;;;;;-3.75;100.00;96248.31;1018832;29;20016;-64
2023/02/28 01:10:13;;;;;;;7.03;2.70;;;;;;;-3.75;100.00;96262.88;1022556;28;20023;-64
2023/02/28 01:10:43;;;;;;;3.63;2.40;;;;;;;-3.75;100.00;96244.94;1027027;28;20385;-64
2023/02/28 01:11:15;;;;;;;5.33;2.70;;;;;;;-3.82;100.00;96240.44;1030803;28;20023;-65
2023/02/28 01:11:46;;;;;;;7.18;2.83;;;;;;;-3.76;100.00;96245.88;1026512;28;20015;-65
2023/02/28 01:12:16;;;;;;;4.30;2.23;;;;;;;-3.77;100.00;96249.41;1028160;28;20108;-64
2023/02/28 01:12:46;;;;;;;4.93;2.50;;;;;;;-3.81;100.00;96257.44;1022579;28;20023;-64
2023/02/28 01:13:17;;;;;;;4.73;2.93;;;;;;;-3.81;100.00;96252.28;1022930;28;20030;-65
2023/02/28 01:13:48;;;;;;;5.40;3.23;;;;;;;-3.81;100.00;96247.16;1026305;28;20548;-64
2023/02/28 01:14:18;;;;;;;4.73;2.90;;;;;;;-3.80;100.00;96251.31;1022108;28;20027;-64
2023/02/28 01:14:49;;;;;;;4.10;2.53;;;;;;;-3.83;100.00;96245.72;1026583;28;20113;-65
2023/02/28 01:15:19;;;;;;;6.40;2.73;;;;;;;-3.79;100.00;96249.56;1022298;28;20466;-64
2023/02/28 01:15:51;;;;;;;4.00;2.53;;;;;;;-3.87;100.00;96229.06;1026241;28;20464;-65
2023/02/28 01:16:21;;;;;;;3.95;2.92;;;;;;;-3.78;100.00;96253.75;1022679;29;20576;-64
2023/02/28 01:16:52;;;;;;;7.07;2.47;;;;;;;-3.78;100.00;96250.38;1018299;29;20055;-64
2023/02/28 01:17:22;;;;;;;6.23;2.43;;;;;;;-3.79;100.00;96254.69;1021901;29;20063;-64
2023/02/28 01:17:53;;;;;;;4.37;2.90;;;;;;;-3.77;100.00;96252.78;1018932;28;20079;-64
2023/02/28 01:18:24;;;;;;;3.37;2.40;;;;;;;-3.77;100.00;96252.78;1026135;28;20014;-64
2023/02/28 01:18:54;;;;;;;3.25;2.20;;;;;;;-3.78;100.00;96251.19;1030204;28;20566;-65
2023/02/28 01:19:25;;;;;;;5.30;2.67;;;;;;;-3.83;100.00;96245.72;1025118;28;20046;-64
2023/02/28 01:19:55;;;;;;;4.53;2.40;;;;;;;-3.78;100.00;96255.50;1021961;29;20043;-64
2023/02/28 01:20:26;;;;;;;6.30;3.00;;;;;;;-3.77;100.00;96257.91;1022272;28;20083;-64
2023/02/28 01:20:56;;;;;;;3.73;2.70;;;;;;;-3.77;100.00;96244.28;1022371;28;20659;-65
2023/02/28 01:21:27;;;;;;;4.07;2.70;;;;;;;-3.79;100.00;96254.69;1030243;28;20089;-65
2023/02/28 01:22:01;;;;;;;4.43;2.47;;;;;;;-3.78;100.00;96248.63;1026139;28;20034;-64
2023/02/28 01:22:31;;;;;;;2.80;2.25;;;;;;;-3.77;100.00;96250.22;1024320;28;20090;-64
2023/02/28 01:23:02;;;;;;;4.33;2.73;;;;;;;-3.78;100.00;96248.63;1026507;28;20081;-65
2023/02/28 01:23:32;;;;;;;4.03;2.43;;;;;;;-3.75;100.00;96247.50;1026616;28;20027;-64
2023/02/28 01:24:03;;;;;;;4.73;2.67;;;;;;;-3.74;100.00;96247.34;1030288;28;20027;-65
2023/02/28 01:24:34;;;;;;;6.75;3.22;;;;;;;-3.73;100.00;96250.69;1030320;28;20030;-65
2023/02/28 01:25:05;;;;;;;5.33;2.60;;;;;;;-3.80;100.00;96237.72;1029805;28;20058;-64
2023/02/28 01:25:35;;;;;;;5.77;2.67;;;;;;;-3.72;100.00;96245.41;1025790;28;20078;-65
2023/02/28 01:26:10;;;;;;;5.07;2.33;;;;;;;-3.71;100.00;96249.56;1022254;28;20031;-64
2023/02/28 01:26:40;;;;;;;5.18;2.90;;;;;;;-3.70;100.00;96242.69;1022040;29;20239;-64
2023/02/28 01:27:11;;;;;;;4.00;2.70;;;;;;;-3.70;100.00;96242.69;1022688;28;20019;-65
2023/02/28 01:27:41;;;;;;;5.20;2.83;;;;;;;-3.70;100.00;96246.03;1026010;28;20489;-64
2023/02/28 01:28:12;;;;;;;6.60;3.37;;;;;;;-3.76;100.00;96233.84;1025974;28;20023;-64
2023/02/28 01:28:42;;;;;;;5.67;2.80;;;;;;;-3.70;100.00;96248.59;1026222;28;20034;-65
2023/02/28 01:29:13;;;;;;;6.10;2.83;;;;;;;-3.70;100.00;96243.47;1025502;28;20513;-64
2023/02/28 01:29:43;;;;;;;5.07;2.73;;;;;;;-3.69;100.00;96249.41;1022237;29;20015;-64
2023/02/28 01:30:14;;;;;;;4.33;2.20;;;;;;;-3.69;100.00;96246.84;1022086;29;20019;-64
2023/02/28 01:30:48;;;;;;;3.30;2.43;;;;;;;-3.70;100.00;96253.72;1014189;29;20111;-64
2023/02/28 01:31:19;;;;;;;4.95;2.92;;;;;;;-3.77;100.00;96237.41;1022177;28;20091;-64
2023/02/28 01:31:49;;;;;;;6.30;2.87;;;;;;;-3.70;100.00;96246.03;1022730;28;20058;-64
2023/02/28 01:32:20;;;;;;;4.00;3.00;;;;;;;-3.69;100.00;96247.66;1026893;28;20030;-64
2023/02/28 01:32:53;;;;;;;7.13;3.17;;;;;;;-3.74;100.00;96242.19;1022312;29;20109;-65
2023/02/28 01:33:23;;;;;;;3.22;2.55;;;;;;;-3.70;100.00;96248.59;1021908;29;20429;-64
2023/02/28 01:33:54;;;;;;;4.20;2.80;;;;;;;-3.69;100.00;96250.22;1018183;29;20019;-64
2023/02/28 01:34:24;;;;;;;3.87;2.47;;;;;;;-3.70;100.00;96243.47;1022331;28;20020;-64
2023/02/28 01:34:55;;;;;;;7.00;2.80;;;;;;;-3.68;100.00;96251.81;1029739;28;20467;-64
2023/02/28 01:35:25;;;;;;;4.20;2.73;;;;;;;-3.68;100.00;96244.13;1030173;28;20019;-64
2023/02/28 01:36:15;;;;;;;6.23;2.83;;;;;;;-3.75;100.00;96239.81;1029794;28;20512;-64
2023/02/28 01:36:46;;;;;;;5.60;2.50;;;;;;;-3.70;100.00;96247.81;1022311;29;20042;-65
2023/02/28 01:37:16;;;;;;;3.77;2.27;;;;;;;-3.71;100.00;96252.13;1024414;28;20103;-64
2023/02/28 01:37:47;;;;;;;3.07;2.33;;;;;;;-3.74;100.00;96243.97;1023346;28;20833;-65
2023/02/28 01:38:17;;;;;;;4.87;2.67;;;;;;;-3.74;100.00;96241.41;1026609;28;20031;-64
2023/02/28 01:38:48;;;;;;;7.33;3.07;;;;;;;-3.75;100.00;96248.31;1034879;28;20025;-64
2023/02/28 01:39:18;;;;;;;5.00;3.20;;;;;;;-3.76;100.00;96241.56;1030172;28;20026;-64
2023/02/28 01:39:49;;;;;;;4.93;2.60;;;;;;;-3.82;100.00;96229.41;1030619;28;20085;-64
2023/02/28 01:40:19;;;;;;;4.17;2.57;;;;;;;-3.80;100.00;96235.94;1026695;28;20034;-64
2023/02/28 01:40:50;;;;;;;3.70;2.40;;;;;;;-3.81;100.00;96231.00;1022946;28;20393;-64
2023/02/28 01:41:25;;;;;;;8.63;2.90;;;;;;;-3.77;100.00;96241.72;1022725;29;20057;-64
2023/02/28 01:41:56;;;;;;;4.45;2.70;;;;;;;-3.96;100.00;96210.31;1018855;29;20491;-65
2023/02/28 01:42:26;;;;;;;5.23;2.97;;;;;;;-3.81;100.00;96236.13;1016315;29;20057;-65
2023/02/28 01:42:57;;;;;;;4.90;2.70;;;;;;;-3.78;100.00;96240.13;1022693;29;20117;-64
2023/02/28 01:43:58;;;;;;;3.33;2.10;;;;;;;-3.79;100.00;96234.19;1022915;28;20428;-64
2023/02/28 01:44:55;;;;;;;6.68;3.20;;;;;;;-3.80;100.00;96233.38;1026110;28;20332;-64
2023/02/28 01:45:27;;;;;;;5.47;3.00;;;;;;;-3.81;100.00;96236.13;1022693;29;20051;-64
2023/02/28 01:45:58;;;;;;;6.43;2.92;;;;;;;-3.83;100.00;96233.69;1025050;28;20078;-64
2023/02/28 01:46:30;;;;;;;5.03;2.43;;;;;;;-3.81;100.00;96236.91;1026645;28;20448;-65
2023/02/28 01:47:01;;;;;;;5.22;2.78;;;;;;;-3.83;100.00;96233.69;1022974;28;20405;-64
2023/02/28 01:47:34;;;;;;;4.57;2.83;;;;;;;-3.84;100.00;96226.19;1026845;28;20031;-64
2023/02/28 01:48:06;;;;;;;3.78;2.33;;;;;;;-3.82;100.00;96237.09;1019212;29;20016;-64
2023/02/28 01:48:38;;;;;;;5.25;2.78;;;;;;;-3.89;100.00;96223.28;1018819;29;20462;-64
2023/02/28 01:49:12;;;;;;;5.28;2.63;;;;;;;-3.83;100.00;96235.47;1011217;29;20012;-65
2023/02/28 01:49:43;;;;;;;8.45;2.60;;;;;;;-3.83;100.00;96232.91;1015802;29;20028;-64
2023/02/28 01:50:15;;;;;;;8.97;2.73;;;;;;;-3.85;100.00;96238.19;1015223;29;20020;-65
2023/02/28 01:50:46;;;;;;;5.95;2.80;;;;;;;-3.85;100.00;96227.94;1018734;29;20525;-65
2023/02/28 01:51:20;;;;;;;4.53;2.57;;;;;;;-3.84;100.00;96224.41;1018623;29;20028;-64
2023/02/28 01:51:52;;;;;;;5.28;3.03;;;;;;;-3.85;100.00;96237.41;1020064;29;20023;-64
2023/02/28 01:52:24;;;;;;;5.05;3.00;;;;;;;-3.88;100.00;96224.91;1023611;28;20031;-64
2023/02/28 01:52:57;;;;;;;7.43;2.75;;;;;;;-3.87;100.00;96218.81;1016229;29;20056;-64
2023/02/28 01:53:31;;;;;;;4.93;2.70;;;;;;;-3.92;100.00;96218.50;1018731;29;20027;-65
2023/02/28 01:54:05;;;;;;;6.35;3.10;;;;;;;-3.85;100.00;96233.06;1018831;29;20024;-65
2023/02/28 01:54:35;;;;;;;4.05;2.50;;;;;;;-3.86;100.00;96222.97;1021903;28;20058;-64
2023/02/28 01:55:06;;;;;;;3.80;2.90;;;;;;;-3.84;100.00;96228.75;1027787;28;20034;-64
2023/02/28 01:55:37;;;;;;;8.80;3.20;;;;;;;-3.85;100.00;96219.47;1027260;28;20040;-64
2023/02/28 01:56:07;;;;;;;5.57;2.70;;;;;;;-3.83;100.00;96222.66;1023048;29;20241;-64
2023/02/28 01:56:38;;;;;;;5.30;2.87;;;;;;;-3.83;100.00;96223.44;1016898;29;20024;-64
2023/02/28 01:57:14;;;;;;;5.20;3.40;;;;;;;-3.83;100.00;96225.22;1019079;29;20019;-64
2023/02/28 01:57:52;;;;;;;5.10;2.90;;;;;;;-3.82;100.00;96226.84;1018603;29;20115;-64
2023/02/28 01:58:23;;;;;;;6.85;2.45;;;;;;;-3.82;100.00;96224.28;1018425;29;20192;-64
2023/02/28 01:58:53;;;;;;;4.43;3.00;;;;;;;-3.82;100.00;96225.06;1016578;29;20027;-65
2023/02/28 01:59:32;;;;;;;6.13;2.77;;;;;;;-3.88;100.00;96215.44;1019443;29;20413;-64
2023/02/28 02:00:14;;;;;;;5.90;3.22;;;;;;;-3.83;100.00;96222.66;1013677;29;20063;-64
2023/02/28 02:00:45;;;;;;;6.57;3.30;;;;;;;-3.83;100.00;96226.00;1018715;29;20114;-64
2023/02/28 02:01:21;;;;;;;5.30;3.13;;;;;;;-3.86;100.00;96217.84;1015062;29;20020;-64
2023/02/28 02:01:51;;;;;;;6.85;3.55;;;;;;;-3.87;100.00;96216.25;1022471;28;20041;-65
2023/02/28 02:02:22;;;;;;;5.63;2.77;;;;;;;-3.85;100.00;96219.47;1023547;28;20034;-65
2023/02/28 02:02:59;;;;;;;4.73;2.83;;;;;;;-3.84;100.00;96215.94;1023877;28;20524;-64
2023/02/28 02:03:30;;;;;;;5.93;3.03;;;;;;;-3.83;100.00;96220.09;1026579;28;20106;-64
2023/02/28 02:04:01;;;;;;;5.73;2.90;;;;;;;-3.82;100.00;96219.16;1027889;28;20754;-64
2023/02/28 02:04:41;;;;;;;3.83;2.40;;;;;;;-3.81;100.00;96220.75;1026632;28;20107;-65
2023/02/28 02:05:18;;;;;;;4.95;2.95;;;;;;;-3.81;100.00;96221.53;1022736;28;20016;-64
2023/02/28 02:05:49;;;;;;;6.70;3.30;;;;;;;-3.82;100.00;96219.94;1022660;29;20111;-64
2023/02/28 02:06:19;;;;;;;6.00;2.90;;;;;;;-3.81;100.00;96220.75;1020778;29;20055;-64
2023/02/28 02:06:50;;;;;;;4.30;3.07;;;;;;;-3.87;100.00;96213.69;1023876;28;20039;-64
2023/02/28 02:07:22;;;;;;;4.97;2.90;;;;;;;-3.89;100.00;96208.72;1026685;28;20026;-64
2023/02/28 02:07:55;;;;;;;4.85;3.10;;;;;;;-3.82;100.00;96214.81;1022914;28;20023;-65
2023/02/28 02:08:26;;;;;;;3.38;2.65;;;;;;;-3.82;100.00;96221.72;1022561;28;20051;-64
2023/02/28 02:08:57;;;;;;;4.80;2.70;;;;;;;-3.82;100.00;96219.16;1022739;29;20027;-64
2023/02/28 02:09:27;;;;;;;5.63;2.90;;;;;;;-3.83;100.00;96215.75;1023098;28;20035;-64
2023/02/28 02:10:03;;;;;;;5.73;3.20;;;;;;;-3.87;100.00;96206.78;1026574;28;20015;-64
2023/02/28 02:10:50;;;;;;;5.35;3.00;;;;;;;-3.83;100.00;96214.97;1023520;28;20026;-64
2023/02/28 02:11:20;;;;;;;5.90;2.80;;;;;;;-3.80;100.00;96206.94;1018663;29;20036;-65
2023/02/28 02:11:51;;;;;;;5.50;3.20;;;;;;;-3.83;100.00;96202.16;1018697;29;20379;-64
2023/02/28 02:12:34;;;;;;;5.07;2.80;;;;;;;-3.88;100.00;96194.94;1018901;29;20121;-64
2023/02/28 02:13:38;;;;;;;7.55;2.75;;;;;;;-3.85;100.00;96202.31;1020287;28;20075;-64
2023/02/28 02:14:32;;;;;;;4.03;2.70;;;;;;;-3.86;100.00;96208.38;1026631;28;20488;-64
2023/02/28 02:15:08;;;;;;;6.30;2.60;;;;;;;-3.86;100.00;96213.50;1026670;28;20027;-64
2023/02/28 02:16:05;;;;;;;6.45;3.08;;;;;;;-3.87;100.00;96206.78;1026615;28;20404;-64
2023/02/28 02:17:04;;;;;;;4.32;2.90;;;;;;;-3.88;100.00;96204.41;1026652;28;20042;-64
2023/02/28 02:17:38;;;;;;;4.55;2.53;;;;;;;-3.88;100.00;96209.53;1028567;28;20034;-64
2023/02/28 02:18:33;;;;;;;5.40;2.78;;;;;;;-3.87;100.00;96206.78;1026731;28;20011;-64
2023/02/28 02:19:47;;;;;;;4.63;2.78;;;;;;;-3.86;100.00;96210.16;1022698;29;20110;-65
2023/02/28 02:20:47;;;;;;;3.25;2.30;;;;;;;-3.86;100.00;96207.59;1023035;28;20556;-64
2023/02/28 02:21:30;;;;;;;7.93;3.35;;;;;;;-3.93;100.00;96197.19;1027206;28;20282;-64
2023/02/28 02:22:34;;;;;;;4.68;2.25;;;;;;;-3.87;100.00;96206.00;1023574;28;20118;-64
2023/02/28 02:23:19;;;;;;;5.93;2.92;;;;;;;-3.89;100.00;96200.22;1021288;29;20029;-64
2023/02/28 02:24:11;;;;;;;5.78;3.55;;;;;;;-3.87;100.00;96206.78;1023023;28;20028;-64
2023/02/28 02:24:52;;;;;;;4.60;2.85;;;;;;;-3.86;100.00;96205.03;1019874;29;20078;-64
2023/02/28 02:25:51;;;;;;;6.03;3.28;;;;;;;-3.86;100.00;96202.47;1016810;28;20043;-65
2023/02/28 02:26:46;;;;;;;5.80;3.10;;;;;;;-3.87;100.00;96199.09;1019545;29;20028;-64
2023/02/28 02:27:33;;;;;;;5.47;3.20;;;;;;;-3.91;100.00;96194.47;1027345;28;20034;-64
2023/02/28 02:28:15;;;;;;;8.75;3.03;;;;;;;-3.90;100.00;96201.97;1030299;28;20504;-64
2023/02/28 02:28:59;;;;;;;5.50;2.70;;;;;;;-3.87;100.00;96200.88;1035847;28;20364;-64
2023/02/28 02:29:32;;;;;;;7.65;3.13;;;;;;;-3.87;100.00;96195.75;1034904;28;20029;-64
2023/02/28 02:30:21;;;;;;;6.20;3.40;;;;;;;-3.85;100.00;96194.63;1028214;28;20118;-64
2023/02/28 02:31:27;;;;;;;7.70;3.60;;;;;;;-3.85;100.00;96193.81;1027562;28;20106;-64
2023/02/28 02:32:22;;;;;;;5.35;3.28;;;;;;;-3.86;100.00;96192.22;1035328;28;20049;-64
2023/02/28 02:33:11;;;;;;;7.20;3.50;;;;;;;-3.86;100.00;96187.88;1030102;28;20041;-64
2023/02/28 02:34:06;;;;;;;6.10;3.20;;;;;;;-3.86;100.00;96189.66;1031260;28;20050;-64
2023/02/28 02:34:43;;;;;;;5.45;3.33;;;;;;;-3.85;100.00;96193.81;1032671;28;20101;-64
2023/02/28 02:35:22;;;;;;;5.30;3.28;;;;;;;-3.86;100.00;96190.44;1035753;28;20025;-64